createdAt,value
2018-05-13T00:01:21.071Z,25.70
2018-05-13T00:03:49.038Z,28.60
2018-05-13T00:06:16.926Z,28.27
2018-05-13T00:08:44.920Z,30.83
2018-05-13T00:11:13.657Z,33.63
2018-05-13T00:13:41.579Z,31.83
2018-05-13T00:16:10.279Z,32.00
2018-05-13T00:18:38.251Z,29.03
2018-05-13T00:21:06.243Z,26.87
2018-05-13T00:23:34.245Z,27.10
2018-05-13T00:26:02.221Z,28.00
2018-05-13T00:28:30.131Z,30.97
2018-05-13T00:30:58.146Z,27.87
2018-05-13T00:33:26.078Z,30.80
2018-05-13T00:35:54.057Z,31.33
2018-05-13T00:38:22.055Z,30.57
2018-05-13T00:40:50.059Z,21.50
2018-05-13T00:43:18.828Z,19.53
2018-05-13T00:45:46.806Z,21.87
2018-05-13T00:48:14.738Z,24.90
2018-05-13T00:50:42.752Z,25.43
2018-05-13T00:53:11.467Z,23.83
2018-05-13T00:55:39.393Z,20.23
2018-05-13T00:58:07.299Z,18.83
2018-05-13T01:00:35.339Z,20.20
2018-05-13T01:03:04.059Z,19.07
2018-05-13T01:05:32.008Z,18.03
2018-05-13T01:08:00.739Z,17.60
2018-05-13T01:10:28.683Z,16.43
2018-05-13T01:12:56.603Z,14.93
2018-05-13T01:15:24.610Z,13.27
2018-05-13T01:17:53.337Z,13.03
2018-05-13T01:20:21.259Z,12.50
2018-05-13T01:22:50.033Z,12.33
2018-05-13T01:25:18.063Z,13.13
2018-05-13T01:27:46.073Z,11.90
2018-05-13T01:33:07.225Z,12.03
2018-05-13T01:35:35.995Z,11.53
2018-05-13T01:38:04.693Z,11.43
2018-05-13T01:40:33.445Z,12.57
2018-05-13T01:43:01.357Z,12.43
2018-05-13T01:45:29.291Z,13.73
2018-05-13T01:47:57.214Z,11.77
2018-05-13T01:50:25.179Z,12.57
2018-05-13T01:52:53.093Z,13.07
2018-05-13T01:55:21.105Z,13.03
2018-05-13T01:57:49.863Z,13.40
2018-05-13T02:00:17.786Z,13.87
2018-05-13T02:02:45.935Z,14.27
2018-05-13T02:05:13.874Z,15.10
2018-05-13T02:07:41.853Z,15.67
2018-05-13T02:10:10.617Z,16.80
2018-05-13T02:12:38.552Z,18.63
2018-05-13T02:15:06.532Z,17.67
2018-05-13T02:17:34.470Z,19.80
2018-05-13T02:20:02.390Z,19.70
2018-05-13T02:22:30.293Z,19.80
2018-05-13T02:24:58.975Z,19.53
2018-05-13T02:27:27.617Z,19.30
2018-05-13T02:29:55.611Z,18.37
2018-05-13T02:32:23.534Z,18.43
2018-05-13T02:34:51.425Z,18.57
2018-05-13T02:37:19.367Z,17.17
2018-05-13T02:39:47.380Z,15.70
2018-05-13T02:42:15.332Z,14.90
2018-05-13T02:44:44.050Z,15.30
2018-05-13T02:47:12.007Z,15.80
2018-05-13T02:49:39.957Z,16.23
2018-05-13T02:52:07.929Z,19.37
2018-05-13T02:54:36.633Z,18.67
2018-05-13T02:57:04.545Z,16.63
2018-05-13T02:59:32.437Z,16.00
2018-05-13T03:02:00.365Z,15.20
2018-05-13T03:04:29.050Z,14.77
2018-05-13T03:06:57.878Z,15.27
2018-05-13T03:09:25.796Z,15.27
2018-05-13T03:11:53.786Z,15.10
2018-05-13T03:14:22.539Z,15.73
2018-05-13T03:16:50.592Z,15.33
2018-05-13T03:19:18.600Z,15.13
2018-05-13T03:21:47.286Z,16.33
2018-05-13T03:24:16.037Z,17.17
2018-05-13T03:26:43.971Z,17.43
2018-05-13T03:29:11.862Z,18.83
2018-05-13T03:31:39.791Z,20.40
2018-05-13T03:34:08.454Z,24.00
2018-05-13T03:36:36.392Z,23.67
2018-05-13T03:39:04.484Z,24.40
2018-05-13T03:41:32.385Z,24.27
2018-05-13T03:44:01.101Z,24.17
2018-05-13T03:46:29.122Z,26.83
2018-05-13T03:48:57.061Z,26.30
2018-05-13T03:51:25.013Z,26.53
2018-05-13T03:53:52.951Z,25.50
2018-05-13T03:56:21.655Z,25.03
2018-05-13T03:58:49.610Z,25.17
2018-05-13T04:01:18.311Z,23.63
2018-05-13T04:03:46.206Z,22.20
2018-05-13T04:06:14.131Z,23.83
2018-05-13T04:09:04.625Z,23.33
2018-05-13T04:11:45.110Z,24.40
2018-05-13T04:14:24.915Z,23.10
2018-05-13T04:16:52.879Z,23.10
2018-05-13T04:19:20.838Z,22.87
2018-05-13T04:21:48.829Z,22.73
2018-05-13T04:24:16.781Z,22.33
2018-05-13T04:26:44.758Z,22.47
2018-05-13T04:29:12.678Z,21.43
2018-05-13T04:31:40.700Z,22.50
2018-05-13T04:34:08.642Z,22.40
2018-05-13T04:36:36.619Z,22.53
2018-05-13T04:39:04.666Z,21.70
2018-05-13T04:41:32.688Z,20.70
2018-05-13T04:44:00.619Z,22.30
2018-05-13T04:46:28.520Z,20.73
2018-05-13T04:48:56.462Z,21.27
2018-05-13T04:51:24.374Z,21.70
2018-05-13T04:53:53.034Z,22.10
2018-05-13T04:56:20.990Z,23.57
2018-05-13T04:58:48.921Z,23.10
2018-05-13T05:01:16.888Z,22.17
2018-05-13T05:03:44.810Z,22.00
2018-05-13T05:06:12.780Z,22.63
2018-05-13T05:08:40.758Z,23.10
2018-05-13T05:11:08.656Z,22.90
2018-05-13T05:13:37.340Z,22.47
2018-05-13T05:16:06.023Z,22.10
2018-05-13T05:18:34.728Z,20.97
2018-05-13T05:21:02.619Z,19.90
2018-05-13T05:23:30.596Z,20.43
2018-05-13T05:25:58.605Z,20.23
2018-05-13T05:28:26.528Z,21.53
2018-05-13T05:30:54.537Z,21.50
2018-05-13T05:33:22.477Z,21.93
2018-05-13T05:35:50.518Z,21.23
2018-05-13T05:38:19.210Z,23.73
2018-05-13T05:40:47.230Z,23.40
2018-05-13T05:43:15.211Z,24.10
2018-05-13T05:45:43.136Z,25.10
2018-05-13T05:48:11.035Z,24.47
2018-05-13T05:50:39.001Z,27.17
2018-05-13T05:53:06.943Z,25.03
2018-05-13T05:55:34.862Z,23.97
2018-05-13T05:58:03.584Z,20.20
2018-05-13T06:00:31.451Z,20.63
2018-05-13T06:02:59.333Z,17.20
2018-05-13T06:05:27.273Z,17.20
2018-05-13T06:07:55.972Z,15.37
2018-05-13T06:10:23.895Z,15.60
2018-05-13T06:12:51.820Z,15.80
2018-05-13T06:15:19.733Z,16.08
2018-05-13T06:17:47.735Z,14.90
2018-05-13T06:20:15.720Z,14.93
2018-05-13T06:22:43.692Z,15.97
2018-05-13T06:25:11.655Z,15.17
2018-05-13T06:27:39.549Z,15.63
2018-05-13T06:30:07.434Z,14.05
2018-05-13T06:32:35.354Z,13.27
2018-05-13T06:35:03.323Z,15.07
2018-05-13T06:37:31.340Z,14.17
2018-05-13T06:39:59.300Z,15.13
2018-05-13T06:42:27.226Z,15.80
2018-05-13T06:44:55.951Z,16.67
2018-05-13T06:47:23.889Z,15.67
2018-05-13T06:49:51.855Z,16.37
2018-05-13T06:52:19.846Z,16.03
2018-05-13T06:54:47.799Z,15.53
2018-05-13T06:57:15.781Z,15.57
2018-05-13T06:59:43.759Z,16.00
2018-05-13T07:02:11.702Z,15.40
2018-05-13T07:04:40.355Z,15.80
2018-05-13T07:07:08.296Z,16.60
2018-05-13T07:09:36.254Z,16.05
2018-05-13T07:12:04.205Z,17.07
2018-05-13T07:14:32.094Z,16.23
2018-05-13T07:17:00.056Z,17.17
2018-05-13T07:19:28.003Z,15.93
2018-05-13T07:21:55.983Z,15.27
2018-05-13T07:24:24.037Z,16.50
2018-05-13T07:26:52.784Z,17.35
2018-05-13T07:29:20.698Z,16.20
2018-05-13T07:31:48.620Z,17.03
2018-05-13T07:34:16.538Z,16.00
2018-05-13T07:36:44.553Z,16.40
2018-05-13T07:39:12.556Z,16.57
2018-05-13T07:41:41.324Z,18.08
2018-05-13T07:44:09.355Z,16.10
2018-05-13T07:46:37.312Z,17.23
2018-05-13T07:49:05.252Z,17.37
2018-05-13T07:51:33.276Z,16.83
2018-05-13T07:54:01.182Z,18.52
2018-05-13T07:56:29.194Z,18.57
2018-05-13T07:58:57.151Z,19.30
2018-05-13T08:01:25.805Z,19.27
2018-05-13T08:03:53.897Z,20.17
2018-05-13T08:06:22.617Z,20.87
2018-05-13T08:08:50.535Z,21.30
2018-05-13T08:11:18.471Z,19.77
2018-05-13T08:13:46.432Z,21.33
2018-05-13T08:16:15.363Z,23.43
2018-05-13T08:18:43.298Z,22.87
2018-05-13T08:21:11.281Z,22.80
2018-05-13T08:23:39.293Z,19.93
2018-05-13T08:26:07.973Z,22.67
2018-05-13T08:28:36.835Z,23.60
2018-05-13T08:31:04.722Z,23.90
2018-05-13T08:33:32.759Z,22.63
2018-05-13T08:36:00.684Z,22.03
2018-05-13T08:38:29.350Z,20.67
2018-05-13T08:40:58.088Z,22.40
2018-05-13T08:43:26.095Z,21.90
2018-05-13T08:45:54.028Z,21.55
2018-05-13T08:48:22.082Z,21.53
2018-05-13T08:50:50.021Z,24.70
2018-05-13T08:53:18.744Z,23.87
2018-05-13T08:55:46.623Z,23.00
2018-05-13T08:58:14.589Z,23.07
2018-05-13T09:00:42.537Z,21.15
2018-05-13T09:03:10.419Z,22.10
2018-05-13T09:05:38.347Z,22.63
2018-05-13T09:08:06.308Z,21.53
2018-05-13T09:10:34.257Z,23.10
2018-05-13T09:13:02.178Z,20.43
2018-05-13T09:15:30.921Z,22.13
2018-05-13T09:17:58.890Z,18.80
2018-05-13T09:20:26.786Z,22.27
2018-05-13T09:22:55.446Z,22.90
2018-05-13T09:25:23.516Z,23.07
2018-05-13T09:27:51.499Z,23.37
2018-05-13T09:30:19.482Z,21.50
2018-05-13T09:32:48.200Z,23.05
2018-05-13T09:35:16.182Z,22.37
2018-05-13T09:37:44.114Z,24.12
2018-05-13T09:40:12.861Z,20.23
2018-05-13T09:42:40.952Z,24.33
2018-05-13T09:45:08.869Z,25.80
2018-05-13T09:47:36.891Z,22.13
2018-05-13T09:50:04.892Z,23.67
2018-05-13T09:52:33.563Z,21.77
2018-05-13T09:55:02.381Z,23.92
2018-05-13T09:57:30.249Z,23.30
2018-05-13T09:59:58.120Z,22.70
2018-05-13T10:02:26.095Z,22.80
2018-05-13T10:04:54.050Z,22.37
2018-05-13T10:07:21.984Z,22.70
2018-05-13T10:09:49.951Z,22.13
2018-05-13T10:12:17.843Z,21.73
2018-05-13T10:14:46.700Z,22.90
2018-05-13T10:17:14.711Z,22.83
2018-05-13T10:19:42.630Z,24.00
2018-05-13T10:22:11.288Z,23.23
2018-05-13T10:24:39.261Z,24.70
2018-05-13T10:27:07.323Z,22.83
2018-05-13T10:29:35.194Z,24.00
2018-05-13T10:32:03.246Z,24.20
2018-05-13T10:34:33.169Z,15.77
2018-05-13T10:37:01.151Z,13.80
2018-05-13T10:39:29.649Z,13.63
2018-05-13T10:41:57.535Z,7.17
2018-05-13T10:44:26.296Z,8.10
2018-05-13T10:46:54.277Z,8.87
2018-05-13T10:49:23.488Z,10.10
2018-05-13T10:52:00.959Z,8.87
2018-05-13T10:54:32.355Z,11.53
2018-05-13T10:57:00.347Z,11.97
2018-05-13T10:59:28.459Z,13.90
2018-05-13T11:01:59.107Z,13.03
2018-05-13T11:04:27.956Z,5.30
2018-05-13T11:06:56.096Z,5.03
2018-05-13T11:09:24.152Z,5.87
2018-05-13T11:11:52.270Z,4.30
2018-05-13T11:14:20.419Z,3.90
2018-05-13T11:16:48.457Z,4.50
2018-05-13T11:19:17.311Z,3.33
2018-05-13T11:21:45.423Z,4.30
2018-05-13T11:24:14.895Z,4.10
2018-05-13T11:26:42.999Z,4.60
2018-05-13T11:29:11.010Z,4.93
2018-05-13T11:31:39.119Z,5.93
2018-05-13T11:34:07.175Z,5.00
2018-05-13T11:36:35.259Z,5.77
2018-05-13T11:39:03.325Z,5.10
2018-05-13T11:41:31.361Z,5.53
2018-05-13T11:43:59.353Z,4.43
2018-05-13T11:46:27.468Z,4.83
2018-05-13T11:48:56.247Z,5.37
2018-05-13T11:51:25.062Z,7.03
2018-05-13T11:53:53.133Z,7.70
2018-05-13T11:56:21.258Z,7.93
2018-05-13T11:58:49.319Z,8.10
2018-05-13T12:01:17.406Z,5.23
2018-05-13T12:03:45.492Z,5.20
2018-05-13T12:06:13.552Z,4.00
2018-05-13T12:08:41.657Z,3.37
2018-05-13T12:11:10.468Z,3.67
2018-05-13T12:13:38.612Z,3.00
2018-05-13T12:16:07.469Z,2.80
2018-05-13T12:18:35.496Z,3.42
2018-05-13T12:21:03.675Z,2.90
2018-05-13T12:23:32.437Z,3.07
2018-05-13T12:26:01.347Z,2.80
2018-05-13T12:28:29.379Z,2.10
2018-05-13T12:30:57.427Z,2.83
2018-05-13T12:33:25.472Z,2.10
2018-05-13T12:35:53.612Z,2.53
2018-05-13T12:38:22.525Z,2.30
2018-05-13T12:40:50.615Z,2.80
2018-05-13T12:43:18.812Z,2.17
2018-05-13T12:45:46.874Z,2.40
2018-05-13T12:48:14.866Z,2.00
2018-05-13T12:50:42.913Z,2.20
2018-05-13T12:53:10.983Z,2.28
2018-05-13T12:55:39.155Z,2.30
2018-05-13T12:58:09.727Z,2.40
2018-05-13T13:00:37.865Z,2.53
2018-05-13T13:03:05.947Z,2.40
2018-05-13T13:05:34.032Z,2.50
2018-05-13T13:08:02.190Z,2.60
2018-05-13T13:10:30.225Z,3.10
2018-05-13T13:12:58.266Z,2.37
2018-05-13T13:15:26.360Z,2.87
2018-05-13T13:17:55.164Z,2.87
2018-05-13T13:20:23.221Z,3.20
2018-05-13T13:22:52.303Z,3.53
2018-05-13T13:25:21.110Z,3.57
2018-05-13T13:27:49.923Z,3.13
2018-05-13T13:30:18.042Z,3.45
2018-05-13T13:32:46.099Z,3.62
2018-05-13T13:35:14.149Z,3.40
2018-05-13T13:37:42.375Z,3.08
2018-05-13T13:40:11.193Z,2.80
2018-05-13T13:42:39.222Z,2.40
2018-05-13T13:45:07.391Z,3.00
2018-05-13T13:47:35.476Z,2.77
2018-05-13T13:50:03.622Z,2.70
2018-05-13T13:52:31.764Z,2.70
2018-05-13T13:54:59.847Z,2.97
2018-05-13T13:57:28.794Z,2.92
2018-05-13T13:59:57.674Z,3.15
2018-05-13T14:02:25.708Z,2.57
2018-05-13T14:04:53.749Z,2.90
2018-05-13T14:07:21.816Z,3.20
2018-05-13T14:09:49.883Z,3.00
2018-05-13T14:12:18.704Z,2.90
2018-05-13T14:14:46.762Z,3.17
2018-05-13T14:17:14.771Z,3.20
2018-05-13T14:19:42.903Z,3.33
2018-05-13T14:22:11.045Z,3.15
2018-05-13T14:24:39.218Z,3.50
2018-05-13T14:27:07.204Z,3.33
2018-05-13T14:29:36.066Z,2.83
2018-05-13T14:32:04.151Z,3.40
2018-05-13T14:34:32.174Z,2.93
2018-05-13T14:37:00.316Z,2.87
2018-05-13T14:39:29.191Z,2.97
2018-05-13T14:41:57.985Z,2.80
2018-05-13T14:44:27.076Z,3.03
2018-05-13T14:46:56.095Z,3.40
2018-05-13T14:49:24.106Z,3.33
2018-05-13T14:51:52.185Z,3.77
2018-05-13T14:54:20.164Z,3.40
2018-05-13T14:56:48.192Z,2.80
2018-05-13T14:59:16.356Z,2.90
2018-05-13T15:01:44.423Z,2.90
2018-05-13T15:04:12.449Z,3.00
2018-05-13T15:06:40.524Z,3.30
2018-05-13T15:09:08.619Z,3.20
2018-05-13T15:11:37.537Z,2.90
2018-05-13T15:14:05.636Z,3.00
2018-05-13T15:16:33.813Z,3.23
2018-05-13T15:19:02.196Z,3.10
2018-05-13T15:21:30.322Z,3.43
2018-05-13T15:23:58.365Z,3.07
2018-05-13T15:26:26.401Z,3.50
2018-05-13T15:28:54.504Z,3.40
2018-05-13T15:31:22.840Z,3.40
2018-05-13T15:33:50.866Z,3.30
2018-05-13T15:36:19.866Z,2.90
2018-05-13T15:38:47.923Z,3.27
2018-05-13T15:41:15.923Z,3.40
2018-05-13T15:43:44.725Z,3.40
2018-05-13T15:46:12.746Z,3.37
2018-05-13T15:48:40.708Z,3.87
2018-05-13T15:51:08.840Z,4.27
2018-05-13T15:53:36.889Z,4.40
2018-05-13T15:56:05.704Z,5.77
2018-05-13T15:58:34.105Z,6.93
2018-05-13T16:01:02.243Z,9.03
2018-05-13T16:03:31.047Z,6.97
2018-05-13T16:05:59.076Z,6.87
2018-05-13T16:08:27.071Z,7.07
2018-05-13T16:10:55.855Z,8.47
2018-05-13T16:13:24.881Z,7.77
2018-05-13T16:15:53.707Z,8.00
2018-05-13T16:18:21.834Z,9.03
2018-05-13T16:20:49.863Z,7.90
2018-05-13T16:23:17.898Z,7.63
2018-05-13T16:25:45.966Z,7.70
2018-05-13T16:28:14.017Z,7.97
2018-05-13T16:30:42.035Z,7.70
2018-05-13T16:33:10.067Z,6.90
2018-05-13T16:35:38.196Z,7.77
2018-05-13T16:38:06.260Z,7.57
2018-05-13T16:40:34.412Z,6.57
2018-05-13T16:43:02.490Z,6.77
2018-05-13T16:45:30.529Z,6.60
2018-05-13T16:47:58.654Z,6.83
2018-05-13T16:50:26.700Z,6.23
2018-05-13T16:52:54.767Z,5.77
2018-05-13T16:55:22.748Z,5.43
2018-05-13T16:57:50.920Z,5.60
2018-05-13T17:00:18.893Z,5.83
2018-05-13T17:02:46.886Z,6.00
2018-05-13T17:05:14.951Z,5.83
2018-05-13T17:07:42.998Z,6.13
2018-05-13T17:10:11.087Z,6.90
2018-05-13T17:12:39.192Z,8.00
2018-05-13T17:15:07.946Z,7.03
2018-05-13T17:17:36.044Z,7.00
2018-05-13T17:20:04.937Z,8.27
2018-05-13T17:22:33.881Z,8.73
2018-05-13T17:25:02.817Z,9.90
2018-05-13T17:27:31.630Z,9.73
2018-05-13T17:29:59.609Z,9.37
2018-05-13T17:32:27.719Z,10.13
2018-05-13T17:34:55.865Z,9.33
2018-05-13T17:37:24.031Z,8.90
2018-05-13T17:39:52.128Z,9.10
2018-05-13T17:42:20.233Z,8.33
2018-05-13T17:44:48.284Z,9.00
2018-05-13T17:47:16.277Z,8.80
2018-05-13T17:49:44.487Z,8.70
2018-05-13T17:52:13.641Z,8.90
2018-05-13T17:54:41.679Z,9.67
2018-05-13T17:57:09.855Z,10.40
2018-05-13T17:59:37.926Z,10.70
2018-05-13T18:02:06.040Z,10.50
2018-05-13T18:04:34.122Z,9.60
2018-05-13T18:07:08.123Z,10.27
2018-05-13T18:09:42.713Z,11.03
2018-05-13T18:12:10.806Z,10.90
2018-05-13T18:14:38.851Z,11.83
2018-05-13T18:17:06.929Z,10.97
2018-05-13T18:19:35.045Z,11.63
2018-05-13T18:22:03.839Z,10.87
2018-05-13T18:24:32.721Z,10.60
2018-05-13T18:27:00.717Z,11.20
2018-05-13T18:29:29.542Z,11.30
2018-05-13T18:31:57.577Z,11.40
2018-05-13T18:34:26.385Z,12.03
2018-05-13T18:36:54.494Z,12.17
2018-05-13T18:39:22.623Z,11.70
2018-05-13T18:41:50.972Z,13.57
2018-05-13T18:44:20.524Z,13.90
2018-05-13T18:46:48.568Z,14.27
2018-05-13T18:49:16.707Z,13.63
2018-05-13T18:51:44.719Z,14.40
2018-05-13T18:54:12.805Z,16.03
2018-05-13T18:56:40.912Z,16.33
2018-05-13T18:59:08.968Z,15.30
2018-05-13T19:01:37.069Z,15.97
2018-05-13T19:04:05.161Z,16.97
2018-05-13T19:06:34.037Z,16.20
2018-05-13T19:09:02.128Z,16.97
2018-05-13T19:11:31.064Z,15.47
2018-05-13T19:13:59.144Z,16.00
2018-05-13T19:16:27.233Z,15.60
2018-05-13T19:18:55.354Z,14.37
2018-05-13T19:21:23.414Z,15.27
2018-05-13T19:23:52.278Z,14.40
2018-05-13T19:26:20.392Z,12.60
2018-05-13T19:28:48.415Z,12.33
2018-05-13T19:31:16.517Z,12.00
2018-05-13T19:33:45.376Z,11.13
2018-05-13T19:36:13.434Z,11.80
2018-05-13T19:38:41.534Z,11.60
2018-05-13T19:41:09.605Z,11.70
2018-05-13T19:43:37.630Z,12.63
2018-05-13T19:46:05.861Z,12.90
2018-05-13T19:48:34.648Z,11.60
2018-05-13T19:51:03.451Z,11.97
2018-05-13T19:53:31.555Z,11.53
2018-05-13T19:55:59.652Z,11.63
2018-05-13T19:58:27.832Z,7.20
2018-05-13T20:00:56.001Z,6.43
2018-05-13T20:03:24.241Z,7.00
2018-05-13T20:05:52.913Z,6.17
2018-05-13T20:08:21.724Z,5.90
2018-05-13T20:10:50.518Z,5.60
2018-05-13T20:13:18.576Z,6.10
2018-05-13T20:15:46.655Z,6.10
2018-05-13T20:18:15.457Z,6.97
2018-05-13T20:20:43.484Z,8.03
2018-05-13T20:23:24.331Z,6.57
2018-05-13T20:25:53.211Z,7.73
2018-05-13T20:28:21.319Z,8.27
2018-05-13T20:30:50.129Z,8.50
2018-05-13T20:33:18.241Z,8.03
2018-05-13T20:35:46.245Z,9.17
2018-05-13T20:38:15.073Z,8.63
2018-05-13T20:40:43.109Z,7.23
2018-05-13T20:43:11.925Z,8.27
2018-05-13T20:45:39.975Z,8.50
2018-05-13T20:48:08.762Z,8.47
2018-05-13T20:50:37.571Z,8.73
2018-05-13T20:53:05.683Z,7.43
2018-05-13T20:55:33.763Z,7.07
2018-05-13T20:58:01.902Z,7.87
2018-05-13T21:00:29.944Z,7.43
2018-05-13T21:02:58.863Z,6.90
2018-05-13T21:05:27.021Z,6.80
2018-05-13T21:07:55.890Z,7.47
2018-05-13T21:10:24.712Z,7.10
2018-05-13T21:12:52.868Z,6.53
2018-05-13T21:15:21.688Z,7.83
2018-05-13T21:17:49.691Z,8.30
2018-05-13T21:20:17.684Z,7.53
2018-05-13T21:22:45.684Z,7.87
2018-05-13T21:25:13.834Z,7.30
2018-05-13T21:27:42.630Z,7.33
2018-05-13T21:30:11.466Z,6.90
2018-05-13T21:32:39.500Z,7.10
2018-05-13T21:35:07.567Z,7.10
2018-05-13T21:37:36.428Z,7.13
2018-05-13T21:40:04.496Z,7.07
2018-05-13T21:42:32.571Z,7.13
2018-05-13T21:45:00.604Z,5.67
2018-05-13T21:47:28.595Z,6.20
2018-05-13T21:49:56.707Z,5.70
2018-05-13T21:52:25.590Z,6.10
2018-05-13T21:54:54.356Z,5.97
2018-05-13T21:57:22.381Z,5.67
2018-05-13T21:59:50.615Z,5.90
2018-05-13T22:02:18.747Z,6.20
2018-05-13T22:04:58.652Z,6.57
2018-05-13T22:07:27.491Z,6.40
2018-05-13T22:09:55.500Z,5.60
2018-05-13T22:12:23.567Z,5.57
2018-05-13T22:14:51.620Z,5.90
2018-05-13T22:17:19.642Z,5.77
2018-05-13T22:19:48.500Z,6.00
2018-05-13T22:22:16.544Z,5.40
2018-05-13T22:24:44.595Z,6.17
2018-05-13T22:27:12.672Z,5.70
2018-05-13T22:29:40.771Z,5.63
2018-05-13T22:32:08.868Z,5.63
2018-05-13T22:34:36.942Z,5.67
2018-05-13T22:37:04.960Z,5.60
2018-05-13T22:39:33.015Z,5.43
2018-05-13T22:42:01.186Z,5.30
2018-05-13T22:44:29.306Z,5.33
2018-05-13T22:46:57.329Z,5.20
2018-05-13T22:49:26.228Z,5.37
2018-05-13T22:51:54.280Z,5.00
2018-05-13T22:54:23.087Z,5.07
2018-05-13T22:56:51.089Z,5.20
2018-05-13T22:59:19.859Z,5.57
2018-05-13T23:01:47.931Z,5.10
2018-05-13T23:04:15.960Z,5.10
2018-05-13T23:06:44.016Z,5.23
2018-05-13T23:09:12.208Z,5.43
2018-05-13T23:11:41.053Z,5.23
2018-05-13T23:14:09.034Z,4.90
2018-05-13T23:16:37.072Z,5.13
2018-05-13T23:19:05.158Z,5.50
2018-05-13T23:21:33.211Z,5.60
2018-05-13T23:24:01.263Z,5.50
2018-05-13T23:26:30.059Z,5.50
2018-05-13T23:28:59.011Z,4.97
2018-05-13T23:31:27.058Z,5.17
2018-05-13T23:33:55.110Z,5.43
2018-05-13T23:36:23.176Z,5.47
2018-05-13T23:38:51.951Z,5.10
2018-05-13T23:41:20.775Z,4.73
2018-05-13T23:43:48.779Z,5.10
2018-05-13T23:46:16.827Z,4.97
2018-05-13T23:48:45.732Z,4.93
2018-05-13T23:51:13.760Z,4.90
2018-05-13T23:53:41.784Z,5.13
2018-05-13T23:56:09.808Z,4.63
2018-05-13T23:58:37.950Z,4.30
